createdAt,value
2022-07-25T00:04:12.090Z,4.65
2022-07-25T00:09:15.320Z,4.40
2022-07-25T00:14:17.945Z,4.97
2022-07-25T00:19:20.658Z,4.60
2022-07-25T00:24:23.578Z,4.57
2022-07-25T00:29:26.160Z,4.67
2022-07-25T00:34:29.032Z,4.85
2022-07-25T00:39:31.839Z,4.20
2022-07-25T00:44:38.343Z,4.55
2022-07-25T00:49:40.867Z,5.00
2022-07-25T00:54:43.821Z,4.82
2022-07-25T00:59:47.749Z,5.07
2022-07-25T01:04:50.775Z,4.70
2022-07-25T01:09:53.775Z,4.90
2022-07-25T01:14:56.396Z,5.45
2022-07-25T01:19:59.341Z,5.38
2022-07-25T01:25:02.093Z,5.07
2022-07-25T01:30:09.851Z,4.70
2022-07-25T01:35:14.503Z,4.47
2022-07-25T01:40:17.833Z,5.30
2022-07-25T01:45:20.538Z,5.50
2022-07-25T01:50:23.358Z,5.20
2022-07-25T01:55:26.413Z,4.80
2022-07-25T02:00:30.766Z,5.95
2022-07-25T02:05:33.559Z,5.80
2022-07-25T02:10:36.302Z,5.30
2022-07-25T02:15:39.987Z,5.20
2022-07-25T02:20:43.452Z,5.30
2022-07-25T02:25:46.103Z,5.60
2022-07-25T02:30:48.935Z,5.67
2022-07-25T02:35:51.711Z,5.33
2022-07-25T02:40:54.503Z,5.43
2022-07-25T02:45:58.911Z,5.90
2022-07-25T02:51:01.671Z,5.33
2022-07-25T02:56:04.460Z,5.40
2022-07-25T03:01:08.563Z,6.00
2022-07-25T03:06:11.434Z,5.97
2022-07-25T03:11:14.645Z,5.37
2022-07-25T03:16:17.641Z,5.35
2022-07-25T03:21:20.498Z,5.60
2022-07-25T03:26:23.447Z,5.40
2022-07-25T03:31:27.959Z,5.28
2022-07-25T03:36:30.769Z,5.53
2022-07-25T03:41:33.837Z,5.47
2022-07-25T03:46:36.550Z,5.60
2022-07-25T03:51:39.259Z,5.32
2022-07-25T03:56:48.040Z,5.77
2022-07-25T04:01:51.952Z,5.18
2022-07-25T04:06:54.780Z,5.70
2022-07-25T04:11:58.208Z,6.05
2022-07-25T04:22:04.091Z,5.80
2022-07-25T04:27:06.661Z,6.50
2022-07-25T04:32:09.739Z,6.00
2022-07-25T04:37:13.239Z,5.47
2022-07-25T04:42:15.869Z,6.45
2022-07-25T04:47:18.590Z,5.55
2022-07-25T04:52:21.518Z,5.70
2022-07-25T04:57:24.542Z,5.40
2022-07-25T05:02:28.415Z,5.68
2022-07-25T05:07:31.348Z,6.13
2022-07-25T05:12:33.935Z,6.23
2022-07-25T05:17:36.563Z,5.27
2022-07-25T05:22:39.393Z,6.20
2022-07-25T05:27:42.450Z,5.73
2022-07-25T05:32:45.384Z,5.88
2022-07-25T05:37:48.676Z,6.15
2022-07-25T05:42:51.391Z,6.45
2022-07-25T05:47:54.172Z,6.00
2022-07-25T05:52:56.798Z,5.20
2022-07-25T05:58:00.238Z,5.97
2022-07-25T06:03:05.811Z,5.70
2022-07-25T06:08:09.867Z,5.60
2022-07-25T06:13:23.778Z,5.45
2022-07-25T06:18:56.263Z,5.78
2022-07-25T06:24:16.108Z,5.50
2022-07-25T06:29:19.162Z,5.55
2022-07-25T06:39:31.908Z,5.57
2022-07-25T06:44:37.317Z,5.00
2022-07-25T06:49:48.877Z,5.68
2022-07-25T06:54:52.602Z,5.25
2022-07-25T06:59:57.591Z,4.70
2022-07-25T07:11:42.628Z,5.15
2022-07-25T07:16:48.535Z,5.18
2022-07-25T07:21:53.569Z,4.75
2022-07-25T07:26:58.815Z,4.95
2022-07-25T07:32:03.200Z,4.63
2022-07-25T07:41:51.638Z,4.60
2022-07-25T07:46:54.950Z,5.60
2022-07-25T18:47:56.379Z,6.68
2022-07-25T18:53:00.460Z,6.68
2022-07-25T18:58:03.743Z,5.80
2022-07-25T19:07:52.066Z,10.25
2022-07-25T19:12:55.331Z,8.68
2022-07-25T19:17:58.482Z,6.43
2022-07-25T19:23:01.910Z,9.43
2022-07-25T19:28:05.874Z,6.70
2022-07-25T19:33:11.857Z,7.55
2022-07-25T19:38:15.192Z,6.05
2022-07-25T19:43:18.409Z,5.80
2022-07-25T19:48:24.591Z,6.18
2022-07-25T19:53:28.732Z,7.63
2022-07-25T19:58:35.407Z,6.78
2022-07-25T20:03:43.114Z,6.25
2022-07-25T20:08:46.332Z,6.45
2022-07-25T20:13:49.636Z,7.22
2022-07-25T20:18:52.852Z,6.72
2022-07-25T20:23:55.921Z,6.82
2022-07-25T20:29:00.066Z,6.50
2022-07-25T20:34:04.360Z,6.97
2022-07-25T20:39:10.285Z,7.38
2022-07-25T20:44:14.588Z,7.25
2022-07-25T20:49:17.855Z,6.57
2022-07-25T20:54:20.894Z,7.07
2022-07-25T20:59:24.009Z,6.95
2022-07-25T21:04:27.114Z,7.10
2022-07-25T21:09:32.711Z,7.35
2022-07-25T21:14:36.186Z,6.78
2022-07-25T21:24:42.837Z,6.47
2022-07-25T21:29:46.874Z,6.68
2022-07-25T21:34:50.875Z,7.15
2022-07-25T21:39:54.918Z,7.57
2022-07-25T21:44:57.961Z,7.25
2022-07-25T21:50:25.079Z,7.43
2022-07-25T21:55:28.407Z,6.68
2022-07-25T22:00:33.461Z,6.57
2022-07-25T22:05:37.086Z,7.05
2022-07-25T22:10:40.583Z,7.65
2022-07-25T22:15:43.910Z,7.35
2022-07-25T22:20:47.208Z,7.88
2022-07-25T22:30:53.973Z,6.57
2022-07-25T22:35:58.428Z,6.88
2022-07-25T22:41:01.580Z,7.30
2022-07-25T22:46:05.221Z,7.38
2022-07-25T22:51:08.413Z,7.78
2022-07-25T22:56:12.075Z,8.20
2022-07-25T23:11:28.121Z,8.02
2022-07-25T23:16:31.577Z,8.38
2022-07-25T23:21:35.290Z,8.00
2022-07-25T23:26:38.691Z,8.35
2022-07-25T23:31:42.408Z,8.38
2022-07-25T23:36:46.096Z,8.27
2022-07-25T23:41:49.371Z,8.93
2022-07-25T23:46:53.724Z,8.80
2022-07-25T23:51:58.460Z,8.77
2022-07-25T23:57:04.766Z,7.70
